createdAt,value
2022-07-27T00:00:53.944Z,81.64
2022-07-27T00:03:20.891Z,81.34
2022-07-27T00:05:47.694Z,81.79
2022-07-27T00:08:14.597Z,81.79
2022-07-27T00:10:41.417Z,82.40
2022-07-27T00:13:08.295Z,83.32
2022-07-27T00:15:35.300Z,83.42
2022-07-27T00:18:02.189Z,83.59
2022-07-27T00:20:30.923Z,83.12
2022-07-27T00:22:59.120Z,83.44
2022-07-27T00:25:27.769Z,83.84
2022-07-27T00:27:56.839Z,83.96
2022-07-27T00:30:24.452Z,84.46
2022-07-27T00:32:52.007Z,84.92
2022-07-27T00:35:19.091Z,84.32
2022-07-27T00:37:45.953Z,84.66
2022-07-27T00:40:12.982Z,83.97
2022-07-27T00:42:39.994Z,84.31
2022-07-27T00:45:07.795Z,85.31
2022-07-27T00:47:34.978Z,87.14
2022-07-27T00:50:02.329Z,87.59
2022-07-27T00:52:30.809Z,88.00
2022-07-27T00:54:59.175Z,86.38
2022-07-27T00:57:27.886Z,86.59
2022-07-27T00:59:54.839Z,87.24
2022-07-27T01:02:22.960Z,89.12
2022-07-27T01:04:53.553Z,88.27
2022-07-27T01:07:24.684Z,88.50
2022-07-27T01:09:57.702Z,87.07
2022-07-27T01:12:32.440Z,88.53
2022-07-27T01:15:00.384Z,88.78
2022-07-27T01:17:30.732Z,89.89
2022-07-27T01:19:59.268Z,88.93
2022-07-27T01:22:27.091Z,89.52
2022-07-27T01:24:53.960Z,90.01
2022-07-27T01:27:21.063Z,90.63
2022-07-27T01:29:48.650Z,91.06
2022-07-27T01:32:15.739Z,92.54
2022-07-27T01:34:42.721Z,92.57
2022-07-27T01:37:09.724Z,93.17
2022-07-27T01:39:36.697Z,91.03
2022-07-27T01:42:04.497Z,89.77
2022-07-27T01:44:31.316Z,89.14
2022-07-27T01:46:58.139Z,90.28
2022-07-27T01:49:25.059Z,90.39
2022-07-27T01:51:52.119Z,90.55
2022-07-27T01:54:19.028Z,91.35
2022-07-27T01:56:45.973Z,90.70
2022-07-27T01:59:16.580Z,91.81
2022-07-27T02:01:45.198Z,91.60
2022-07-27T02:04:12.329Z,90.88
2022-07-27T02:06:39.463Z,92.97
2022-07-27T02:09:06.553Z,93.54
2022-07-27T02:11:51.861Z,94.37
2022-07-27T02:14:19.195Z,93.41
2022-07-27T02:16:48.298Z,94.51
2022-07-27T02:19:17.232Z,94.98
2022-07-27T02:21:45.247Z,96.96
2022-07-27T02:24:12.299Z,98.52
2022-07-27T02:26:39.236Z,100.00
2022-07-27T02:29:07.168Z,99.80
2022-07-27T02:31:33.977Z,99.05
2022-07-27T02:34:00.850Z,99.39
2022-07-27T02:36:30.362Z,98.80
2022-07-27T02:38:57.988Z,98.40
2022-07-27T02:41:25.062Z,98.72
2022-07-27T02:43:51.924Z,97.53
2022-07-27T02:46:18.838Z,99.20
2022-07-27T02:48:46.085Z,100.00
2022-07-27T02:51:14.903Z,100.00
2022-07-27T02:53:42.050Z,100.00
2022-07-27T02:56:09.011Z,100.00
2022-07-27T02:58:36.045Z,100.00
2022-07-27T03:01:03.859Z,100.00
2022-07-27T03:03:36.206Z,100.00
2022-07-27T03:06:08.554Z,100.00
2022-07-27T03:08:36.246Z,100.00
2022-07-27T03:11:03.365Z,100.00
2022-07-27T03:13:30.623Z,100.00
2022-07-27T03:15:58.187Z,100.00
2022-07-27T03:18:25.238Z,100.00
2022-07-27T03:20:52.243Z,100.00
2022-07-27T03:23:19.730Z,100.00
2022-07-27T03:25:46.669Z,100.00
2022-07-27T03:28:13.538Z,100.00
2022-07-27T03:30:40.439Z,100.00
2022-07-27T03:33:07.611Z,100.00
2022-07-27T03:35:34.453Z,100.00
2022-07-27T03:38:01.417Z,100.00
2022-07-27T03:40:32.790Z,100.00
2022-07-27T03:43:00.201Z,100.00
2022-07-27T03:45:27.753Z,100.00
2022-07-27T03:47:54.697Z,100.00
2022-07-27T03:50:21.573Z,100.00
2022-07-27T03:52:48.435Z,100.00
2022-07-27T03:55:15.278Z,100.00
2022-07-27T03:57:42.132Z,100.00
2022-07-27T04:00:12.442Z,100.00
2022-07-27T04:02:43.053Z,100.00
2022-07-27T04:05:10.917Z,100.00
2022-07-27T04:07:38.523Z,100.00
2022-07-27T04:10:06.858Z,100.00
2022-07-27T04:12:39.498Z,100.00
2022-07-27T04:15:07.518Z,100.00
2022-07-27T04:17:55.266Z,100.00
2022-07-27T04:20:21.252Z,100.00
2022-07-27T04:22:48.784Z,100.00
2022-07-27T04:25:15.657Z,100.00
2022-07-27T04:27:42.515Z,100.00
2022-07-27T04:30:10.008Z,100.00
2022-07-27T04:32:37.426Z,100.00
2022-07-27T04:35:05.033Z,100.00
2022-07-27T04:37:33.258Z,100.00
2022-07-27T04:40:00.914Z,100.00
2022-07-27T04:42:28.616Z,100.00
2022-07-27T04:44:55.579Z,100.00
2022-07-27T04:47:22.455Z,100.00
2022-07-27T04:49:49.271Z,100.00
2022-07-27T04:52:16.648Z,100.00
2022-07-27T04:54:44.295Z,100.00
2022-07-27T04:57:11.189Z,100.00
2022-07-27T04:59:38.295Z,100.00
2022-07-27T05:02:05.187Z,100.00
2022-07-27T05:04:32.077Z,100.00
2022-07-27T05:06:58.940Z,100.00
2022-07-27T05:09:25.736Z,100.00
2022-07-27T05:11:52.931Z,100.00
2022-07-27T05:14:21.504Z,100.00
2022-07-27T05:16:49.460Z,100.00
2022-07-27T05:19:16.548Z,100.00
2022-07-27T05:21:43.634Z,100.00
2022-07-27T05:24:10.457Z,100.00
2022-07-27T05:26:37.947Z,100.00
2022-07-27T05:29:04.920Z,99.55
2022-07-27T05:31:31.840Z,99.76
2022-07-27T05:33:58.869Z,99.04
2022-07-27T05:36:26.639Z,97.40
2022-07-27T05:38:53.523Z,97.11
2022-07-27T05:41:25.634Z,97.22
2022-07-27T05:43:54.458Z,97.79
2022-07-27T05:46:22.157Z,98.03
2022-07-27T05:48:49.594Z,98.10
2022-07-27T05:51:16.547Z,96.93
2022-07-27T05:53:43.400Z,95.90
2022-07-27T05:56:10.330Z,95.64
2022-07-27T05:58:37.377Z,95.03
2022-07-27T06:01:04.676Z,94.91
2022-07-27T06:03:31.658Z,94.41
2022-07-27T06:06:17.459Z,93.28
2022-07-27T06:08:45.644Z,91.78
2022-07-27T06:11:12.740Z,91.78
2022-07-27T06:13:41.981Z,91.01
2022-07-27T06:16:10.140Z,90.94
2022-07-27T06:18:37.322Z,92.14
2022-07-27T06:21:04.644Z,91.10
2022-07-27T06:23:31.723Z,90.78
2022-07-27T06:25:58.593Z,90.72
2022-07-27T06:28:25.443Z,90.06
2022-07-27T06:30:53.584Z,90.52
2022-07-27T06:33:29.047Z,90.57
2022-07-27T06:35:58.187Z,90.57
2022-07-27T06:38:25.879Z,90.05
2022-07-27T06:40:53.771Z,89.44
2022-07-27T06:43:26.931Z,89.64
2022-07-27T06:45:54.778Z,89.53
2022-07-27T06:48:22.286Z,89.31
2022-07-27T06:50:50.311Z,90.30
2022-07-27T06:53:21.074Z,89.25
2022-07-27T06:55:49.259Z,89.13
2022-07-27T06:58:16.926Z,88.79
2022-07-27T07:00:43.832Z,89.33
2022-07-27T07:03:11.265Z,90.02
2022-07-27T07:05:46.408Z,90.42
2022-07-27T07:08:14.517Z,88.71
2022-07-27T07:10:44.006Z,88.25
2022-07-27T07:13:11.340Z,88.49
2022-07-27T07:15:40.726Z,87.80
2022-07-27T07:18:08.269Z,87.40
2022-07-27T07:20:36.512Z,87.99
2022-07-27T07:23:04.764Z,87.89
2022-07-27T07:25:33.516Z,87.49
2022-07-27T07:28:00.677Z,89.32
2022-07-27T07:30:28.476Z,88.62
2022-07-27T07:32:56.242Z,86.94
2022-07-27T07:35:23.689Z,86.61
2022-07-27T07:37:50.911Z,86.46
2022-07-27T07:43:06.463Z,85.38
2022-07-27T07:45:37.976Z,86.34
2022-07-27T07:48:12.724Z,85.95
2022-07-27T07:50:39.541Z,85.84
2022-07-27T07:53:06.388Z,84.54
2022-07-27T07:55:33.461Z,85.02
2022-07-27T07:58:01.800Z,84.13
2022-07-27T08:00:28.783Z,84.18
2022-07-27T08:02:59.784Z,82.06
2022-07-27T08:05:27.763Z,82.77
2022-07-27T08:07:55.121Z,81.67
2022-07-27T08:10:22.888Z,81.01
2022-07-27T08:12:53.683Z,80.69
2022-07-27T08:15:21.444Z,79.88
2022-07-27T08:18:00.040Z,79.71
2022-07-27T08:20:28.296Z,78.28
2022-07-27T08:22:55.112Z,79.13
2022-07-27T08:25:21.954Z,78.84
2022-07-27T08:27:48.861Z,79.42
2022-07-27T08:30:15.675Z,77.82
2022-07-27T08:32:56.033Z,78.86
2022-07-27T08:35:22.962Z,79.02
2022-07-27T08:37:50.388Z,78.55
2022-07-27T08:43:05.558Z,78.45
2022-07-27T08:45:33.583Z,78.02
2022-07-27T08:48:01.587Z,79.35
2022-07-27T08:50:30.399Z,79.71
2022-07-27T08:53:07.417Z,78.96
2022-07-27T08:55:43.688Z,78.99
2022-07-27T08:58:12.346Z,78.18
2022-07-27T09:00:42.625Z,78.56
2022-07-27T09:03:19.559Z,77.92
2022-07-27T09:05:55.431Z,76.48
2022-07-27T09:08:24.978Z,76.96
2022-07-27T09:10:55.213Z,77.10
2022-07-27T09:13:22.130Z,76.78
2022-07-27T09:18:46.510Z,75.91
2022-07-27T09:21:21.967Z,75.10
2022-07-27T09:24:44.265Z,75.23
2022-07-27T09:27:06.059Z,75.46
2022-07-27T09:29:36.657Z,75.07
2022-07-27T09:32:15.640Z,73.76
2022-07-27T09:34:43.136Z,73.43
2022-07-27T09:37:10.971Z,74.60
2022-07-27T09:39:39.095Z,75.13
2022-07-27T09:42:06.136Z,75.49
2022-07-27T09:44:44.897Z,75.36
2022-07-27T09:47:30.313Z,75.11
2022-07-27T09:50:18.269Z,73.88
2022-07-27T09:52:46.517Z,73.28
2022-07-27T09:55:14.223Z,73.22
2022-07-27T09:57:56.517Z,73.59
2022-07-27T10:00:24.946Z,72.87
2022-07-27T10:02:53.890Z,70.87
2022-07-27T10:05:24.191Z,70.59
2022-07-27T10:07:53.986Z,69.94
2022-07-27T10:10:23.097Z,70.51
2022-07-27T10:12:54.536Z,70.85
2022-07-27T10:15:24.210Z,68.84
2022-07-27T10:18:07.411Z,68.74
2022-07-27T10:20:39.837Z,67.25
2022-07-27T10:23:07.399Z,67.97
2022-07-27T10:25:37.739Z,68.92
2022-07-27T10:28:17.494Z,69.98
2022-07-27T10:30:48.169Z,70.84
2022-07-27T10:33:47.915Z,69.60
2022-07-27T10:36:46.771Z,70.08
2022-07-27T10:39:30.201Z,70.64
2022-07-27T10:42:28.090Z,69.57
2022-07-27T10:45:02.432Z,69.75
2022-07-27T10:47:37.598Z,69.93
2022-07-27T10:50:16.641Z,69.62
2022-07-27T10:53:05.392Z,68.89
2022-07-27T10:55:38.006Z,67.84
2022-07-27T10:58:11.023Z,66.58
2022-07-27T11:00:57.140Z,66.63
2022-07-27T11:03:42.703Z,66.88
2022-07-27T11:06:55.726Z,66.12
2022-07-27T11:11:55.807Z,61.53
2022-07-27T11:14:30.471Z,61.70
2022-07-27T11:17:24.268Z,61.43
2022-07-27T11:20:00.345Z,58.57
2022-07-27T11:25:27.137Z,55.73
2022-07-27T11:27:54.111Z,55.21
2022-07-27T11:30:29.146Z,53.97
2022-07-27T11:32:56.600Z,49.21
2022-07-27T11:35:24.085Z,45.35
2022-07-27T11:38:05.153Z,44.11
2022-07-27T11:43:44.003Z,36.95
2022-07-27T11:46:26.493Z,34.06
2022-07-27T11:49:08.604Z,29.14
2022-07-27T11:51:44.316Z,31.51
2022-07-27T11:54:23.345Z,26.79
2022-07-27T11:56:56.779Z,27.44
2022-07-27T11:59:34.170Z,26.21
2022-07-27T12:02:10.492Z,28.72
2022-07-27T12:04:40.999Z,24.97
2022-07-27T12:07:17.031Z,24.83
2022-07-27T12:09:56.409Z,27.85
2022-07-27T12:12:25.976Z,27.21
2022-07-27T12:15:11.889Z,28.42
2022-07-27T12:17:57.231Z,31.35
2022-07-27T12:20:33.703Z,29.32
2022-07-27T12:23:06.692Z,31.50
2022-07-27T12:25:34.647Z,32.83
2022-07-27T12:28:04.725Z,34.32
2022-07-27T12:30:34.903Z,36.34
2022-07-27T12:33:14.050Z,37.04
2022-07-27T12:35:47.087Z,34.15
2022-07-27T12:38:14.149Z,33.47
2022-07-27T12:40:50.969Z,35.18
2022-07-27T12:43:23.964Z,35.94
2022-07-27T12:45:53.443Z,34.62
2022-07-27T12:48:27.915Z,35.49
2022-07-27T12:51:04.521Z,34.47
2022-07-27T12:53:33.111Z,35.08
2022-07-27T12:56:05.432Z,35.74
2022-07-27T12:58:32.862Z,36.77
2022-07-27T13:00:59.915Z,36.99
2022-07-27T13:03:26.870Z,36.34
2022-07-27T13:05:53.827Z,35.35
2022-07-27T13:08:21.939Z,36.57
2022-07-27T13:10:52.081Z,37.60
2022-07-27T13:13:24.195Z,36.79
2022-07-27T13:15:51.145Z,38.41
2022-07-27T13:18:23.314Z,39.53
2022-07-27T13:20:51.488Z,39.80
2022-07-27T13:23:18.474Z,38.12
2022-07-27T13:25:45.430Z,38.46
2022-07-27T13:28:12.922Z,38.58
2022-07-27T13:30:39.991Z,37.78
2022-07-27T13:33:07.259Z,37.21
2022-07-27T13:35:34.301Z,38.79
2022-07-27T13:38:01.114Z,39.86
2022-07-27T13:40:27.944Z,39.17
2022-07-27T13:42:54.760Z,39.81
2022-07-27T13:45:21.820Z,39.39
2022-07-27T13:47:48.758Z,39.04
2022-07-27T13:50:19.312Z,39.12
2022-07-27T13:52:48.418Z,39.54
2022-07-27T13:55:16.976Z,39.63
2022-07-27T13:57:45.015Z,39.52
2022-07-27T14:00:12.960Z,40.23
2022-07-27T14:02:40.130Z,39.21
2022-07-27T14:05:12.311Z,39.12
2022-07-27T14:07:40.873Z,40.37
2022-07-27T14:10:28.743Z,39.27
2022-07-27T14:13:08.190Z,39.14
2022-07-27T14:15:52.710Z,38.87
2022-07-27T14:18:23.944Z,39.42
2022-07-27T14:20:50.816Z,39.57
2022-07-27T14:23:17.636Z,39.46
2022-07-27T14:25:44.885Z,38.86
2022-07-27T14:28:11.718Z,39.64
2022-07-27T14:30:38.615Z,39.36
2022-07-27T14:33:05.471Z,39.73
2022-07-27T14:35:35.724Z,40.44
2022-07-27T14:38:05.274Z,40.56
2022-07-27T14:40:32.110Z,40.03
2022-07-27T14:42:59.956Z,40.83
2022-07-27T14:45:44.951Z,41.41
2022-07-27T14:48:21.492Z,40.71
2022-07-27T14:50:55.296Z,40.76
2022-07-27T14:53:22.282Z,41.10
2022-07-27T14:55:49.172Z,40.87
2022-07-27T14:58:16.189Z,40.63
2022-07-27T15:00:43.144Z,40.50
2022-07-27T15:03:14.668Z,40.49
2022-07-27T15:05:50.652Z,40.36
2022-07-27T15:08:20.693Z,39.79
2022-07-27T15:10:48.292Z,39.77
2022-07-27T15:13:15.426Z,39.66
2022-07-27T15:15:42.381Z,40.50
2022-07-27T15:18:09.307Z,40.92
2022-07-27T15:20:36.217Z,40.47
2022-07-27T15:23:04.001Z,41.27
2022-07-27T15:25:30.863Z,40.54
2022-07-27T15:27:57.971Z,40.57
2022-07-27T15:30:24.869Z,40.33
2022-07-27T15:32:51.758Z,39.98
2022-07-27T15:35:19.043Z,40.01
2022-07-27T15:37:54.829Z,40.37
2022-07-27T15:40:37.815Z,40.32
2022-07-27T15:43:10.788Z,40.27
2022-07-27T15:45:40.191Z,40.59
2022-07-27T15:48:09.406Z,40.20
2022-07-27T15:50:39.026Z,40.25
2022-07-27T15:53:06.952Z,40.74
2022-07-27T15:55:35.251Z,40.81
2022-07-27T15:58:02.058Z,40.65
2022-07-27T16:00:29.320Z,40.72
2022-07-27T16:02:56.803Z,41.38
2022-07-27T16:05:24.011Z,41.28
2022-07-27T16:07:51.109Z,40.91
2022-07-27T16:10:17.943Z,40.93
2022-07-27T16:12:44.948Z,41.29
2022-07-27T16:15:11.826Z,41.29
2022-07-27T16:17:38.671Z,40.82
2022-07-27T16:20:06.965Z,40.85
2022-07-27T16:22:35.327Z,41.05
2022-07-27T16:25:02.167Z,41.32
2022-07-27T16:27:29.062Z,41.11
2022-07-27T16:29:55.905Z,41.20
2022-07-27T16:32:22.802Z,41.16
2022-07-27T16:34:49.633Z,41.02
2022-07-27T16:37:17.238Z,41.14
2022-07-27T16:39:44.583Z,41.18
2022-07-27T16:42:11.417Z,41.29
2022-07-27T16:44:40.064Z,41.65
2022-07-27T16:47:07.364Z,41.90
2022-07-27T16:49:36.585Z,41.46
2022-07-27T16:52:05.886Z,41.37
2022-07-27T16:54:38.877Z,41.32
2022-07-27T16:57:07.928Z,41.24
2022-07-27T16:59:34.797Z,41.26
2022-07-27T17:02:01.707Z,41.57
2022-07-27T17:04:28.552Z,41.57
2022-07-27T17:06:55.399Z,41.69
2022-07-27T17:09:22.232Z,40.83
2022-07-27T17:11:50.274Z,41.22
2022-07-27T17:14:17.304Z,41.60
2022-07-27T17:16:51.883Z,41.36
2022-07-27T17:19:19.349Z,41.39
2022-07-27T17:21:46.431Z,41.21
2022-07-27T17:24:13.308Z,41.39
2022-07-27T17:26:40.208Z,41.70
2022-07-27T17:29:07.054Z,41.05
2022-07-27T17:31:33.953Z,41.42
2022-07-27T17:34:01.292Z,41.21
2022-07-27T17:36:28.232Z,41.72
2022-07-27T17:38:55.323Z,41.78
2022-07-27T17:41:24.849Z,41.48
2022-07-27T17:43:54.000Z,42.08
2022-07-27T17:46:21.920Z,41.39
2022-07-27T17:48:48.940Z,41.29
2022-07-27T17:51:16.039Z,41.30
2022-07-27T17:53:43.586Z,41.68
2022-07-27T17:56:11.110Z,41.73
2022-07-27T17:58:38.234Z,41.88
2022-07-27T18:01:08.788Z,41.92
2022-07-27T18:03:35.903Z,43.07
2022-07-27T18:06:03.156Z,42.46
2022-07-27T18:08:29.999Z,42.75
2022-07-27T18:10:56.944Z,42.76
2022-07-27T18:13:23.875Z,42.96
2022-07-27T18:16:08.032Z,43.40
2022-07-27T18:18:36.210Z,43.89
2022-07-27T18:21:03.678Z,43.59
2022-07-27T18:23:30.784Z,43.92
2022-07-27T18:25:57.831Z,43.97
2022-07-27T18:28:25.013Z,44.42
2022-07-27T18:30:53.781Z,44.20
2022-07-27T18:33:21.280Z,44.26
2022-07-27T18:35:48.714Z,44.20
2022-07-27T18:38:16.801Z,44.24
2022-07-27T18:40:47.260Z,44.25
2022-07-27T18:43:15.990Z,44.07
2022-07-27T18:45:43.423Z,44.50
2022-07-27T18:48:10.738Z,44.87
2022-07-27T18:50:39.839Z,44.61
2022-07-27T18:53:07.872Z,45.02
2022-07-27T18:55:34.923Z,44.86
2022-07-27T18:58:01.723Z,45.08
2022-07-27T19:00:29.012Z,44.94
2022-07-27T19:02:58.178Z,45.22
2022-07-27T19:05:40.757Z,45.13
2022-07-27T19:08:13.367Z,45.31
2022-07-27T19:10:42.467Z,45.49
2022-07-27T19:13:10.566Z,45.77
2022-07-27T19:15:38.258Z,45.85
2022-07-27T19:18:06.583Z,46.15
2022-07-27T19:20:33.644Z,46.02
2022-07-27T19:23:00.804Z,46.13
2022-07-27T19:25:30.214Z,46.17
2022-07-27T19:27:57.571Z,46.48
2022-07-27T19:30:24.493Z,46.60
2022-07-27T19:32:51.773Z,46.94
2022-07-27T19:35:18.702Z,47.22
2022-07-27T19:37:45.558Z,47.00
2022-07-27T19:42:59.632Z,47.61
2022-07-27T19:45:26.538Z,47.13
2022-07-27T19:47:53.407Z,47.22
2022-07-27T19:50:20.294Z,46.91
2022-07-27T19:52:47.244Z,47.37
2022-07-27T19:55:15.478Z,47.16
2022-07-27T19:57:42.295Z,46.85
2022-07-27T20:00:11.088Z,47.44
2022-07-27T20:02:38.106Z,46.98
2022-07-27T20:05:05.473Z,46.98
2022-07-27T20:07:32.374Z,47.65
2022-07-27T20:09:59.382Z,47.77
2022-07-27T20:12:26.286Z,47.21
2022-07-27T20:14:53.207Z,47.72
2022-07-27T20:17:20.138Z,47.13
2022-07-27T20:19:46.985Z,47.14
2022-07-27T20:22:13.883Z,47.29
2022-07-27T20:24:40.759Z,47.00
2022-07-27T20:27:07.666Z,47.30
2022-07-27T20:29:34.486Z,46.66
2022-07-27T20:32:01.561Z,46.96
2022-07-27T20:34:28.603Z,47.26
2022-07-27T20:36:56.252Z,47.30
2022-07-27T20:39:25.362Z,46.94
2022-07-27T20:41:52.610Z,47.24
2022-07-27T20:44:20.823Z,46.97
2022-07-27T20:46:48.121Z,47.23
2022-07-27T20:49:16.895Z,47.82
2022-07-27T20:51:44.296Z,47.29
2022-07-27T20:54:11.163Z,47.75
2022-07-27T20:56:39.775Z,47.13
2022-07-27T20:59:07.655Z,47.55
2022-07-27T21:01:36.120Z,47.36
2022-07-27T21:04:03.110Z,47.52
2022-07-27T21:06:30.000Z,47.22
2022-07-27T21:08:56.816Z,47.58
2022-07-27T21:11:23.637Z,47.70
2022-07-27T21:13:50.452Z,47.39
2022-07-27T21:16:17.314Z,47.66
2022-07-27T21:18:44.175Z,47.31
2022-07-27T21:21:11.073Z,47.92
2022-07-27T21:23:56.761Z,47.70
2022-07-27T21:26:23.701Z,47.58
2022-07-27T21:28:50.533Z,48.22
2022-07-27T21:31:17.491Z,47.98
2022-07-27T21:33:44.402Z,48.42
2022-07-27T21:36:11.291Z,48.22
2022-07-27T21:38:38.114Z,48.04
2022-07-27T21:41:05.747Z,48.61
2022-07-27T21:43:33.439Z,48.42
2022-07-27T21:46:00.465Z,49.23
2022-07-27T21:48:27.333Z,49.96
2022-07-27T21:50:54.199Z,50.82
2022-07-27T21:53:21.069Z,51.53
2022-07-27T21:55:47.909Z,51.77
2022-07-27T21:58:15.407Z,51.84
2022-07-27T22:00:42.683Z,52.29
2022-07-27T22:03:10.047Z,52.40
2022-07-27T22:05:37.047Z,51.76
2022-07-27T22:08:04.119Z,52.64
2022-07-27T22:10:31.682Z,53.58
2022-07-27T22:12:59.141Z,53.30
2022-07-27T22:15:26.867Z,54.42
2022-07-27T22:17:53.982Z,55.43
2022-07-27T22:20:21.719Z,55.51
2022-07-27T22:22:50.268Z,55.58
2022-07-27T22:25:18.872Z,56.43
2022-07-27T22:27:45.697Z,56.40
2022-07-27T22:30:12.714Z,57.05
2022-07-27T22:32:39.544Z,57.29
2022-07-27T22:35:07.210Z,56.31
2022-07-27T22:37:34.030Z,56.79
2022-07-27T22:40:00.906Z,57.68
2022-07-27T22:42:28.180Z,58.08
2022-07-27T22:44:55.041Z,58.64
2022-07-27T22:47:21.923Z,58.33
2022-07-27T22:49:48.845Z,59.23
2022-07-27T22:52:15.654Z,58.66
2022-07-27T22:54:42.498Z,58.42
2022-07-27T22:57:09.340Z,58.70
2022-07-27T22:59:37.445Z,58.88
2022-07-27T23:02:05.681Z,59.07
2022-07-27T23:04:32.790Z,59.42
2022-07-27T23:06:59.789Z,59.82
2022-07-27T23:09:26.602Z,59.21
2022-07-27T23:11:53.638Z,59.74
2022-07-27T23:14:20.672Z,59.96
2022-07-27T23:16:47.541Z,58.91
2022-07-27T23:19:14.459Z,58.43
2022-07-27T23:21:42.334Z,56.04
2022-07-27T23:24:11.088Z,56.56
2022-07-27T23:26:38.615Z,55.95
2022-07-27T23:29:05.428Z,55.86
2022-07-27T23:31:32.306Z,56.20
2022-07-27T23:33:59.273Z,58.07
2022-07-27T23:36:26.622Z,58.10
2022-07-27T23:38:53.615Z,57.76
2022-07-27T23:41:20.810Z,57.31
2022-07-27T23:43:47.637Z,57.23
2022-07-27T23:46:14.794Z,58.65
2022-07-27T23:48:41.892Z,58.80
2022-07-27T23:51:09.177Z,58.76
2022-07-27T23:53:36.011Z,58.12
2022-07-27T23:56:02.879Z,60.01
2022-07-27T23:58:29.703Z,58.44
